sensor_id;sensor_type;location;lat;lon;timestamp;P1;P2;P0
65361;PMS5003;51961;54.960;73.462;2022-08-01T00:01:04;22.00;20.00;9.25
65361;PMS5003;51961;54.960;73.462;2022-08-01T00:04:17;24.33;22.00;12.00
65361;PMS5003;51961;54.960;73.462;2022-08-01T00:07:20;23.00;21.00;8.00
65361;PMS5003;51961;54.960;73.462;2022-08-01T00:10:22;23.00;21.33;10.00
65361;PMS5003;51961;54.960;73.462;2022-08-01T00:13:25;23.67;22.00;11.00
65361;PMS5003;51961;54.960;73.462;2022-08-01T00:16:28;24.00;21.00;11.67
65361;PMS5003;51961;54.960;73.462;2022-08-01T00:19:31;25.33;22.00;10.00
65361;PMS5003;51961;54.960;73.462;2022-08-01T00:22:38;26.00;21.00;8.67
65361;PMS5003;51961;54.960;73.462;2022-08-01T00:25:46;23.00;19.00;10.00
65361;PMS5003;51961;54.960;73.462;2022-08-01T00:28:58;22.67;20.67;9.00
65361;PMS5003;51961;54.960;73.462;2022-08-01T00:32:03;25.50;22.75;11.00
65361;PMS5003;51961;54.960;73.462;2022-08-01T00:35:07;25.33;21.67;11.33
65361;PMS5003;51961;54.960;73.462;2022-08-01T00:38:15;24.33;21.00;9.00
65361;PMS5003;51961;54.960;73.462;2022-08-01T00:41:18;25.00;22.00;10.00
65361;PMS5003;51961;54.960;73.462;2022-08-01T00:44:20;24.00;21.00;10.00
65361;PMS5003;51961;54.960;73.462;2022-08-01T00:47:22;23.75;22.25;10.00
65361;PMS5003;51961;54.960;73.462;2022-08-01T00:50:25;23.67;22.67;10.00
65361;PMS5003;51961;54.960;73.462;2022-08-01T00:53:27;22.25;21.00;9.25
65361;PMS5003;51961;54.960;73.462;2022-08-01T00:56:29;23.00;22.00;10.00
65361;PMS5003;51961;54.960;73.462;2022-08-01T00:59:33;24.00;21.33;11.00
65361;PMS5003;51961;54.960;73.462;2022-08-01T01:02:36;25.00;25.00;12.00
65361;PMS5003;51961;54.960;73.462;2022-08-01T01:05:41;23.00;22.00;11.00
65361;PMS5003;51961;54.960;73.462;2022-08-01T01:08:46;20.00;20.00;11.25
65361;PMS5003;51961;54.960;73.462;2022-08-01T01:15:15;22.00;21.67;9.00
65361;PMS5003;51961;54.960;73.462;2022-08-01T01:18:29;25.00;23.00;12.00
65361;PMS5003;51961;54.960;73.462;2022-08-01T01:21:39;24.50;24.25;9.25
65361;PMS5003;51961;54.960;73.462;2022-08-01T01:24:58;25.33;23.33;10.67
65361;PMS5003;51961;54.960;73.462;2022-08-01T01:31:46;25.00;25.00;12.00
65361;PMS5003;51961;54.960;73.462;2022-08-01T01:35:00;24.50;24.25;11.50
65361;PMS5003;51961;54.960;73.462;2022-08-01T01:38:07;23.00;22.00;12.00
65361;PMS5003;51961;54.960;73.462;2022-08-01T01:41:17;24.25;24.00;13.00
65361;PMS5003;51961;54.960;73.462;2022-08-01T01:44:19;25.00;24.00;12.00
65361;PMS5003;51961;54.960;73.462;2022-08-01T01:47:22;25.33;23.00;13.00
65361;PMS5003;51961;54.960;73.462;2022-08-01T01:50:27;25.00;24.00;13.00
65361;PMS5003;51961;54.960;73.462;2022-08-01T01:53:31;25.00;23.00;13.00
65361;PMS5003;51961;54.960;73.462;2022-08-01T01:56:36;25.00;22.50;13.00
65361;PMS5003;51961;54.960;73.462;2022-08-01T01:59:59;22.25;21.00;12.25
65361;PMS5003;51961;54.960;73.462;2022-08-01T02:03:02;22.00;21.00;12.00
65361;PMS5003;51961;54.960;73.462;2022-08-01T02:06:07;23.00;22.00;14.00
65361;PMS5003;51961;54.960;73.462;2022-08-01T02:09:09;26.00;24.50;14.75
65361;PMS5003;51961;54.960;73.462;2022-08-01T02:12:11;24.00;23.00;15.00
65361;PMS5003;51961;54.960;73.462;2022-08-01T02:15:15;22.33;21.33;14.00
65361;PMS5003;51961;54.960;73.462;2022-08-01T02:18:18;25.00;24.00;12.00
65361;PMS5003;51961;54.960;73.462;2022-08-01T02:21:44;29.00;25.50;13.00
65361;PMS5003;51961;54.960;73.462;2022-08-01T02:24:49;28.00;24.75;13.50
65361;PMS5003;51961;54.960;73.462;2022-08-01T02:28:01;25.67;23.33;13.00
65361;PMS5003;51961;54.960;73.462;2022-08-01T02:31:06;27.00;25.25;14.00
65361;PMS5003;51961;54.960;73.462;2022-08-01T02:34:09;26.50;24.25;13.00
65361;PMS5003;51961;54.960;73.462;2022-08-01T02:37:15;26.00;24.00;13.00
65361;PMS5003;51961;54.960;73.462;2022-08-01T02:40:18;28.00;26.50;12.50
65361;PMS5003;51961;54.960;73.462;2022-08-01T02:43:21;29.00;26.00;13.00
65361;PMS5003;51961;54.960;73.462;2022-08-01T02:46:29;27.00;24.00;12.00
65361;PMS5003;51961;54.960;73.462;2022-08-01T02:49:39;26.00;24.00;12.75
65361;PMS5003;51961;54.960;73.462;2022-08-01T02:52:43;27.00;24.00;14.50
65361;PMS5003;51961;54.960;73.462;2022-08-01T02:55:47;26.00;24.50;14.00
65361;PMS5003;51961;54.960;73.462;2022-08-01T02:58:53;24.00;22.00;13.00
65361;PMS5003;51961;54.960;73.462;2022-08-01T03:01:56;28.25;26.25;14.50
65361;PMS5003;51961;54.960;73.462;2022-08-01T03:04:58;33.25;27.25;15.25
65361;PMS5003;51961;54.960;73.462;2022-08-01T03:08:02;31.00;26.00;16.00
65361;PMS5003;51961;54.960;73.462;2022-08-01T03:11:04;31.00;26.00;17.00
65361;PMS5003;51961;54.960;73.462;2022-08-01T03:14:07;31.00;27.00;18.00
65361;PMS5003;51961;54.960;73.462;2022-08-01T03:17:13;32.00;29.00;17.00
65361;PMS5003;51961;54.960;73.462;2022-08-01T03:20:17;30.00;29.00;16.00
65361;PMS5003;51961;54.960;73.462;2022-08-01T03:23:19;31.00;29.00;17.00
65361;PMS5003;51961;54.960;73.462;2022-08-01T03:26:24;31.00;29.00;19.00
65361;PMS5003;51961;54.960;73.462;2022-08-01T03:29:27;31.00;28.00;17.00
65361;PMS5003;51961;54.960;73.462;2022-08-01T03:32:31;30.00;26.50;17.00
65361;PMS5003;51961;54.960;73.462;2022-08-01T03:35:34;32.75;28.50;17.00
65361;PMS5003;51961;54.960;73.462;2022-08-01T03:38:41;35.00;30.00;19.00
65361;PMS5003;51961;54.960;73.462;2022-08-01T03:41:54;30.00;27.50;17.00
65361;PMS5003;51961;54.960;73.462;2022-08-01T03:44:59;31.50;28.00;18.50
65361;PMS5003;51961;54.960;73.462;2022-08-01T03:48:17;34.00;29.00;18.00
65361;PMS5003;51961;54.960;73.462;2022-08-01T03:51:29;31.00;29.00;19.00
65361;PMS5003;51961;54.960;73.462;2022-08-01T03:54:34;32.00;29.00;19.00
65361;PMS5003;51961;54.960;73.462;2022-08-01T03:57:37;33.00;28.00;18.00
65361;PMS5003;51961;54.960;73.462;2022-08-01T04:00:39;35.00;29.00;19.00
65361;PMS5003;51961;54.960;73.462;2022-08-01T04:03:42;35.50;30.00;19.00
65361;PMS5003;51961;54.960;73.462;2022-08-01T04:06:44;34.00;30.00;17.75
65361;PMS5003;51961;54.960;73.462;2022-08-01T04:09:47;35.00;31.00;18.00
65361;PMS5003;51961;54.960;73.462;2022-08-01T04:12:50;35.00;31.00;18.00
65361;PMS5003;51961;54.960;73.462;2022-08-01T04:16:04;34.00;31.00;19.00
65361;PMS5003;51961;54.960;73.462;2022-08-01T04:19:07;34.00;29.00;19.00
65361;PMS5003;51961;54.960;73.462;2022-08-01T04:22:10;32.50;29.50;18.00
65361;PMS5003;51961;54.960;73.462;2022-08-01T04:25:21;32.50;30.00;18.25
65361;PMS5003;51961;54.960;73.462;2022-08-01T04:28:31;36.00;32.00;19.00
65361;PMS5003;51961;54.960;73.462;2022-08-01T04:31:36;36.00;31.00;19.00
65361;PMS5003;51961;54.960;73.462;2022-08-01T04:34:39;33.00;31.00;19.00
65361;PMS5003;51961;54.960;73.462;2022-08-01T04:37:44;35.50;31.50;19.00
65361;PMS5003;51961;54.960;73.462;2022-08-01T04:40:48;40.00;32.00;19.25
65361;PMS5003;51961;54.960;73.462;2022-08-01T04:43:53;39.00;31.00;19.00
65361;PMS5003;51961;54.960;73.462;2022-08-01T04:47:00;36.25;29.25;19.00
65361;PMS5003;51961;54.960;73.462;2022-08-01T04:50:06;44.00;34.00;21.00
65361;PMS5003;51961;54.960;73.462;2022-08-01T04:53:12;40.25;33.50;21.00
65361;PMS5003;51961;54.960;73.462;2022-08-01T04:56:24;39.50;33.50;21.00
65361;PMS5003;51961;54.960;73.462;2022-08-01T04:59:31;37.50;32.00;19.25
65361;PMS5003;51961;54.960;73.462;2022-08-01T05:02:42;37.00;31.75;19.00
65361;PMS5003;51961;54.960;73.462;2022-08-01T05:05:44;38.00;31.00;18.50
65361;PMS5003;51961;54.960;73.462;2022-08-01T05:08:46;34.75;31.00;19.00
65361;PMS5003;51961;54.960;73.462;2022-08-01T05:11:50;34.00;31.00;19.00
65361;PMS5003;51961;54.960;73.462;2022-08-01T05:14:52;38.00;31.75;19.00
65361;PMS5003;51961;54.960;73.462;2022-08-01T05:17:55;35.33;31.00;19.00
65361;PMS5003;51961;54.960;73.462;2022-08-01T05:20:58;32.75;30.00;18.00
65361;PMS5003;51961;54.960;73.462;2022-08-01T05:24:01;32.00;29.00;19.00
65361;PMS5003;51961;54.960;73.462;2022-08-01T05:27:04;34.50;30.00;19.00
65361;PMS5003;51961;54.960;73.462;2022-08-01T05:30:07;35.50;31.25;17.25
65361;PMS5003;51961;54.960;73.462;2022-08-01T05:33:10;35.00;30.50;19.00
65361;PMS5003;51961;54.960;73.462;2022-08-01T05:36:12;32.00;30.00;19.00
65361;PMS5003;51961;54.960;73.462;2022-08-01T05:39:15;32.00;30.80;19.00
65361;PMS5003;51961;54.960;73.462;2022-08-01T05:42:17;36.50;32.00;19.00
65361;PMS5003;51961;54.960;73.462;2022-08-01T05:45:19;34.00;31.00;19.00
65361;PMS5003;51961;54.960;73.462;2022-08-01T05:48:26;30.00;29.00;19.00
65361;PMS5003;51961;54.960;73.462;2022-08-01T05:51:28;32.00;29.00;18.25
65361;PMS5003;51961;54.960;73.462;2022-08-01T05:54:30;32.00;30.00;19.00
65361;PMS5003;51961;54.960;73.462;2022-08-01T05:57:31;32.00;29.00;19.00
65361;PMS5003;51961;54.960;73.462;2022-08-01T06:00:34;32.00;29.00;18.00
65361;PMS5003;51961;54.960;73.462;2022-08-01T06:03:35;33.00;29.00;18.00
65361;PMS5003;51961;54.960;73.462;2022-08-01T06:06:37;31.00;28.00;17.00
65361;PMS5003;51961;54.960;73.462;2022-08-01T06:09:58;32.00;28.50;16.50
65361;PMS5003;51961;54.960;73.462;2022-08-01T06:13:01;31.00;29.00;17.00
65361;PMS5003;51961;54.960;73.462;2022-08-01T06:16:04;34.75;29.75;17.00
65361;PMS5003;51961;54.960;73.462;2022-08-01T06:19:06;35.00;29.50;18.25
65361;PMS5003;51961;54.960;73.462;2022-08-01T06:22:08;38.00;31.50;19.00
65361;PMS5003;51961;54.960;73.462;2022-08-01T06:25:10;34.50;31.00;19.00
65361;PMS5003;51961;54.960;73.462;2022-08-01T06:28:21;35.25;31.00;18.00
65361;PMS5003;51961;54.960;73.462;2022-08-01T06:31:23;32.00;29.00;18.00
65361;PMS5003;51961;54.960;73.462;2022-08-01T06:34:26;32.00;29.00;17.00
65361;PMS5003;51961;54.960;73.462;2022-08-01T06:37:31;32.00;29.00;17.00
65361;PMS5003;51961;54.960;73.462;2022-08-01T06:40:33;37.50;31.00;18.00
65361;PMS5003;51961;54.960;73.462;2022-08-01T06:43:35;36.00;31.00;18.00
65361;PMS5003;51961;54.960;73.462;2022-08-01T06:46:39;35.75;30.25;17.00
65361;PMS5003;51961;54.960;73.462;2022-08-01T06:49:46;43.75;33.50;19.00
65361;PMS5003;51961;54.960;73.462;2022-08-01T06:52:48;43.00;34.00;20.00
65361;PMS5003;51961;54.960;73.462;2022-08-01T06:55:49;41.50;32.00;20.00
65361;PMS5003;51961;54.960;73.462;2022-08-01T06:58:51;45.00;34.00;19.00
65361;PMS5003;51961;54.960;73.462;2022-08-01T07:02:03;41.00;32.00;19.00
65361;PMS5003;51961;54.960;73.462;2022-08-01T07:05:16;36.33;31.00;19.00
65361;PMS5003;51961;54.960;73.462;2022-08-01T07:08:18;35.25;31.00;18.50
65361;PMS5003;51961;54.960;73.462;2022-08-01T07:11:21;36.00;32.00;19.00
65361;PMS5003;51961;54.960;73.462;2022-08-01T07:14:33;35.25;31.00;18.50
65361;PMS5003;51961;54.960;73.462;2022-08-01T07:17:46;45.67;35.33;20.67
65361;PMS5003;51961;54.960;73.462;2022-08-01T07:20:49;44.50;35.25;20.00
65361;PMS5003;51961;54.960;73.462;2022-08-01T07:23:52;38.00;31.00;19.00
65361;PMS5003;51961;54.960;73.462;2022-08-01T07:27:05;35.33;32.00;19.00
65361;PMS5003;51961;54.960;73.462;2022-08-01T07:30:07;34.25;31.25;19.00
65361;PMS5003;51961;54.960;73.462;2022-08-01T07:33:09;36.00;31.00;19.00
65361;PMS5003;51961;54.960;73.462;2022-08-01T07:36:12;33.00;29.00;18.00
65361;PMS5003;51961;54.960;73.462;2022-08-01T07:39:20;35.00;31.00;19.00
65361;PMS5003;51961;54.960;73.462;2022-08-01T07:42:23;37.33;33.00;18.00
65361;PMS5003;51961;54.960;73.462;2022-08-01T07:45:26;42.25;34.50;19.25
65361;PMS5003;51961;54.960;73.462;2022-08-01T07:48:28;44.00;35.00;20.75
65361;PMS5003;51961;54.960;73.462;2022-08-01T07:51:30;41.00;32.00;20.75
65361;PMS5003;51961;54.960;73.462;2022-08-01T07:54:32;37.50;29.50;19.00
65361;PMS5003;51961;54.960;73.462;2022-08-01T07:57:34;36.00;31.50;19.00
65361;PMS5003;51961;54.960;73.462;2022-08-01T08:00:41;44.00;35.00;22.00
65361;PMS5003;51961;54.960;73.462;2022-08-01T08:03:44;37.33;32.00;20.67
65361;PMS5003;51961;54.960;73.462;2022-08-01T08:06:51;37.00;31.25;19.00
65361;PMS5003;51961;54.960;73.462;2022-08-01T08:09:54;39.50;33.50;19.00
65361;PMS5003;51961;54.960;73.462;2022-08-01T08:12:56;31.50;28.00;17.00
65361;PMS5003;51961;54.960;73.462;2022-08-01T08:15:58;29.00;27.00;15.00
65361;PMS5003;51961;54.960;73.462;2022-08-01T08:19:01;26.50;25.00;15.00
65361;PMS5003;51961;54.960;73.462;2022-08-01T08:22:13;24.50;22.75;13.50
65361;PMS5003;51961;54.960;73.462;2022-08-01T08:25:16;23.00;20.00;12.00
65361;PMS5003;51961;54.960;73.462;2022-08-01T08:28:21;26.00;23.00;13.50
65361;PMS5003;51961;54.960;73.462;2022-08-01T08:31:34;19.00;19.00;7.33
65361;PMS5003;51961;54.960;73.462;2022-08-01T08:34:37;16.25;15.25;6.00
65361;PMS5003;51961;54.960;73.462;2022-08-01T08:37:40;13.50;12.00;5.00
65361;PMS5003;51961;54.960;73.462;2022-08-01T08:40:53;16.00;13.00;6.00
65361;PMS5003;51961;54.960;73.462;2022-08-01T08:43:56;15.00;10.00;4.00
65361;PMS5003;51961;54.960;73.462;2022-08-01T08:47:01;14.00;11.00;4.00
65361;PMS5003;51961;54.960;73.462;2022-08-01T08:50:07;15.00;11.00;6.00
65361;PMS5003;51961;54.960;73.462;2022-08-01T08:53:10;11.00;7.50;3.50
65361;PMS5003;51961;54.960;73.462;2022-08-01T08:56:16;9.00;8.00;4.00
65361;PMS5003;51961;54.960;73.462;2022-08-01T08:59:21;8.00;6.50;4.00
65361;PMS5003;51961;54.960;73.462;2022-08-01T09:02:27;8.00;7.00;4.00
65361;PMS5003;51961;54.960;73.462;2022-08-01T09:05:40;8.00;7.75;3.25
65361;PMS5003;51961;54.960;73.462;2022-08-01T09:08:48;7.50;6.50;4.00
65361;PMS5003;51961;54.960;73.462;2022-08-01T09:11:51;10.00;9.00;4.00
65361;PMS5003;51961;54.960;73.462;2022-08-01T09:14:56;8.00;7.00;3.00
65361;PMS5003;51961;54.960;73.462;2022-08-01T09:17:59;8.50;8.50;3.00
65361;PMS5003;51961;54.960;73.462;2022-08-01T09:21:12;8.00;7.00;3.00
65361;PMS5003;51961;54.960;73.462;2022-08-01T09:24:15;6.00;5.75;3.00
65361;PMS5003;51961;54.960;73.462;2022-08-01T09:27:19;8.50;8.25;4.75
65361;PMS5003;51961;54.960;73.462;2022-08-01T09:30:22;8.00;7.00;4.00
65361;PMS5003;51961;54.960;73.462;2022-08-01T09:33:26;7.75;7.25;3.00
65361;PMS5003;51961;54.960;73.462;2022-08-01T09:36:54;7.00;6.00;3.00
65361;PMS5003;51961;54.960;73.462;2022-08-01T09:40:00;8.50;7.50;4.00
65361;PMS5003;51961;54.960;73.462;2022-08-01T09:43:12;7.50;5.00;2.25
65361;PMS5003;51961;54.960;73.462;2022-08-01T09:46:24;5.00;5.00;3.00
65361;PMS5003;51961;54.960;73.462;2022-08-01T09:49:37;8.00;6.50;4.00
65361;PMS5003;51961;54.960;73.462;2022-08-01T09:52:51;8.25;7.00;3.00
65361;PMS5003;51961;54.960;73.462;2022-08-01T09:55:55;5.50;4.75;2.00
65361;PMS5003;51961;54.960;73.462;2022-08-01T09:59:19;5.00;5.00;2.00
65361;PMS5003;51961;54.960;73.462;2022-08-01T10:05:41;16.75;13.00;4.75
65361;PMS5003;51961;54.960;73.462;2022-08-01T10:08:50;8.50;6.75;2.00
65361;PMS5003;51961;54.960;73.462;2022-08-01T10:11:52;5.00;5.00;1.00
65361;PMS5003;51961;54.960;73.462;2022-08-01T10:14:54;5.00;4.00;1.00
65361;PMS5003;51961;54.960;73.462;2022-08-01T10:17:57;5.00;4.50;1.00
65361;PMS5003;51961;54.960;73.462;2022-08-01T10:21:00;3.00;3.00;1.00
65361;PMS5003;51961;54.960;73.462;2022-08-01T10:24:03;4.00;4.00;1.00
65361;PMS5003;51961;54.960;73.462;2022-08-01T10:27:08;3.00;3.00;0.00
65361;PMS5003;51961;54.960;73.462;2022-08-01T10:30:10;3.00;3.00;0.00
65361;PMS5003;51961;54.960;73.462;2022-08-01T10:33:13;3.50;3.00;0.00
65361;PMS5003;51961;54.960;73.462;2022-08-01T10:36:19;7.00;7.00;2.00
65361;PMS5003;51961;54.960;73.462;2022-08-01T10:39:26;3.00;3.00;0.00
65361;PMS5003;51961;54.960;73.462;2022-08-01T10:42:31;2.00;2.00;0.00
65361;PMS5003;51961;54.960;73.462;2022-08-01T10:45:35;9.75;9.75;2.00
65361;PMS5003;51961;54.960;73.462;2022-08-01T10:48:47;12.00;9.00;3.00
65361;PMS5003;51961;54.960;73.462;2022-08-01T10:51:52;14.00;10.00;4.00
65361;PMS5003;51961;54.960;73.462;2022-08-01T10:55:05;18.25;14.00;5.25
65361;PMS5003;51961;54.960;73.462;2022-08-01T10:58:09;23.50;17.25;5.50
65361;PMS5003;51961;54.960;73.462;2022-08-01T11:04:16;12.00;8.25;3.00
65361;PMS5003;51961;54.960;73.462;2022-08-01T11:10:52;10.50;5.25;2.00
65361;PMS5003;51961;54.960;73.462;2022-08-01T11:14:03;2.50;2.00;0.00
65361;PMS5003;51961;54.960;73.462;2022-08-01T11:20:32;0.00;0.00;0.00
65361;PMS5003;51961;54.960;73.462;2022-08-01T11:23:46;0.33;0.33;0.00
65361;PMS5003;51961;54.960;73.462;2022-08-01T11:33:17;0.00;0.00;0.00
65361;PMS5003;51961;54.960;73.462;2022-08-01T11:36:19;0.00;0.00;0.00
65361;PMS5003;51961;54.960;73.462;2022-08-01T11:39:24;0.00;0.00;0.00
65361;PMS5003;51961;54.960;73.462;2022-08-01T11:42:26;0.00;0.00;0.00
65361;PMS5003;51961;54.960;73.462;2022-08-01T11:45:51;0.00;0.00;0.00
65361;PMS5003;51961;54.960;73.462;2022-08-01T11:52:32;0.00;0.00;0.00
65361;PMS5003;51961;54.960;73.462;2022-08-01T11:55:36;0.00;0.00;0.00
65361;PMS5003;51961;54.960;73.462;2022-08-01T11:58:38;0.00;0.00;0.00
65361;PMS5003;51961;54.960;73.462;2022-08-01T12:01:40;0.00;0.00;0.00
65361;PMS5003;51961;54.960;73.462;2022-08-01T12:04:46;0.00;0.00;0.00
65361;PMS5003;51961;54.960;73.462;2022-08-01T12:07:50;0.00;0.00;0.00
65361;PMS5003;51961;54.960;73.462;2022-08-01T12:10:52;0.00;0.00;0.00
65361;PMS5003;51961;54.960;73.462;2022-08-01T12:13:54;0.00;0.00;0.00
65361;PMS5003;51961;54.960;73.462;2022-08-01T12:17:02;0.00;0.00;0.00
65361;PMS5003;51961;54.960;73.462;2022-08-01T12:20:04;0.00;0.00;0.00
65361;PMS5003;51961;54.960;73.462;2022-08-01T12:23:11;0.00;0.00;0.00
65361;PMS5003;51961;54.960;73.462;2022-08-01T12:26:13;0.00;0.00;0.00
65361;PMS5003;51961;54.960;73.462;2022-08-01T12:29:34;0.00;0.00;0.00
65361;PMS5003;51961;54.960;73.462;2022-08-01T12:32:39;0.00;0.00;0.00
65361;PMS5003;51961;54.960;73.462;2022-08-01T12:35:42;0.00;0.00;0.00
65361;PMS5003;51961;54.960;73.462;2022-08-01T12:38:44;0.00;0.00;0.00
65361;PMS5003;51961;54.960;73.462;2022-08-01T12:41:53;0.00;0.00;0.00
65361;PMS5003;51961;54.960;73.462;2022-08-01T12:44:56;0.00;0.00;0.00
65361;PMS5003;51961;54.960;73.462;2022-08-01T12:47:58;0.00;0.00;0.00
65361;PMS5003;51961;54.960;73.462;2022-08-01T12:51:02;0.00;0.00;0.00
65361;PMS5003;51961;54.960;73.462;2022-08-01T12:54:04;0.00;0.00;0.00
65361;PMS5003;51961;54.960;73.462;2022-08-01T12:57:21;0.00;0.00;0.00
65361;PMS5003;51961;54.960;73.462;2022-08-01T13:00:24;3.00;0.00;0.00
65361;PMS5003;51961;54.960;73.462;2022-08-01T13:03:31;5.00;0.00;0.00
65361;PMS5003;51961;54.960;73.462;2022-08-01T13:06:33;5.00;2.75;0.00
65361;PMS5003;51961;54.960;73.462;2022-08-01T13:09:36;6.00;4.00;0.00
65361;PMS5003;51961;54.960;73.462;2022-08-01T13:12:52;6.67;3.67;0.00
65361;PMS5003;51961;54.960;73.462;2022-08-01T13:16:12;6.50;5.00;0.00
65361;PMS5003;51961;54.960;73.462;2022-08-01T13:19:15;6.00;5.00;1.00
65361;PMS5003;51961;54.960;73.462;2022-08-01T13:22:17;3.00;3.00;0.00
65361;PMS5003;51961;54.960;73.462;2022-08-01T13:25:29;4.00;3.00;0.00
65361;PMS5003;51961;54.960;73.462;2022-08-01T13:28:32;3.00;3.00;0.00
65361;PMS5003;51961;54.960;73.462;2022-08-01T13:31:36;2.00;2.00;0.00
65361;PMS5003;51961;54.960;73.462;2022-08-01T13:34:49;1.00;1.00;0.00
65361;PMS5003;51961;54.960;73.462;2022-08-01T13:38:02;1.00;1.00;0.00
65361;PMS5003;51961;54.960;73.462;2022-08-01T13:41:04;1.00;1.00;0.00
65361;PMS5003;51961;54.960;73.462;2022-08-01T13:44:11;1.00;1.00;0.00
65361;PMS5003;51961;54.960;73.462;2022-08-01T13:47:15;1.00;0.00;0.00
65361;PMS5003;51961;54.960;73.462;2022-08-01T13:50:18;0.00;0.00;0.00
65361;PMS5003;51961;54.960;73.462;2022-08-01T13:53:20;0.00;0.00;0.00
65361;PMS5003;51961;54.960;73.462;2022-08-01T13:56:23;0.00;0.00;0.00
65361;PMS5003;51961;54.960;73.462;2022-08-01T13:59:25;0.00;0.00;0.00
65361;PMS5003;51961;54.960;73.462;2022-08-01T14:02:27;0.00;0.00;0.00
65361;PMS5003;51961;54.960;73.462;2022-08-01T14:05:29;2.00;2.00;0.00
65361;PMS5003;51961;54.960;73.462;2022-08-01T14:08:31;3.00;0.00;0.00
65361;PMS5003;51961;54.960;73.462;2022-08-01T14:11:33;1.00;1.00;0.00
65361;PMS5003;51961;54.960;73.462;2022-08-01T14:14:35;3.33;2.33;0.00
65361;PMS5003;51961;54.960;73.462;2022-08-01T14:17:38;8.50;6.00;0.75
65361;PMS5003;51961;54.960;73.462;2022-08-01T14:20:40;6.00;4.00;2.25
65361;PMS5003;51961;54.960;73.462;2022-08-01T14:23:43;3.50;3.50;1.00
65361;PMS5003;51961;54.960;73.462;2022-08-01T14:26:46;4.00;3.00;2.00
65361;PMS5003;51961;54.960;73.462;2022-08-01T14:29:48;4.00;4.00;1.00
65361;PMS5003;51961;54.960;73.462;2022-08-01T14:32:50;5.00;5.00;1.00
65361;PMS5003;51961;54.960;73.462;2022-08-01T14:35:52;5.00;5.00;1.00
65361;PMS5003;51961;54.960;73.462;2022-08-01T14:38:54;6.00;6.00;3.00
65361;PMS5003;51961;54.960;73.462;2022-08-01T14:41:59;3.75;3.75;2.00
65361;PMS5003;51961;54.960;73.462;2022-08-01T14:45:07;5.00;5.00;1.50
65361;PMS5003;51961;54.960;73.462;2022-08-01T14:48:12;6.75;6.00;2.00
65361;PMS5003;51961;54.960;73.462;2022-08-01T14:51:13;6.00;5.50;2.00
65361;PMS5003;51961;54.960;73.462;2022-08-01T14:54:15;5.75;5.00;2.00
65361;PMS5003;51961;54.960;73.462;2022-08-01T14:57:17;5.25;4.00;2.00
65361;PMS5003;51961;54.960;73.462;2022-08-01T15:00:29;4.00;2.33;1.00
65361;PMS5003;51961;54.960;73.462;2022-08-01T15:03:32;3.25;2.25;0.00
65361;PMS5003;51961;54.960;73.462;2022-08-01T15:06:43;3.00;2.00;0.00
65361;PMS5003;51961;54.960;73.462;2022-08-01T15:09:46;3.00;3.00;1.00
65361;PMS5003;51961;54.960;73.462;2022-08-01T15:12:53;5.00;4.33;2.00
65361;PMS5003;51961;54.960;73.462;2022-08-01T15:16:03;6.00;5.00;2.00
65361;PMS5003;51961;54.960;73.462;2022-08-01T15:19:05;4.33;4.33;0.00
65361;PMS5003;51961;54.960;73.462;2022-08-01T15:22:09;5.00;4.50;1.00
65361;PMS5003;51961;54.960;73.462;2022-08-01T15:25:11;5.00;5.00;1.00
65361;PMS5003;51961;54.960;73.462;2022-08-01T15:28:14;4.25;4.00;1.00
65361;PMS5003;51961;54.960;73.462;2022-08-01T15:31:27;3.50;3.00;1.00
65361;PMS5003;51961;54.960;73.462;2022-08-01T15:34:30;4.00;4.00;1.00
65361;PMS5003;51961;54.960;73.462;2022-08-01T15:37:43;3.00;3.00;1.00
65361;PMS5003;51961;54.960;73.462;2022-08-01T15:40:56;3.00;2.00;1.00
65361;PMS5003;51961;54.960;73.462;2022-08-01T15:43:58;3.00;3.00;1.00
65361;PMS5003;51961;54.960;73.462;2022-08-01T15:47:06;3.00;3.00;0.00
65361;PMS5003;51961;54.960;73.462;2022-08-01T15:50:09;2.33;2.00;0.00
65361;PMS5003;51961;54.960;73.462;2022-08-01T15:53:11;2.00;2.00;0.00
65361;PMS5003;51961;54.960;73.462;2022-08-01T15:56:14;2.00;1.25;0.00
65361;PMS5003;51961;54.960;73.462;2022-08-01T15:59:17;1.00;0.00;0.00
65361;PMS5003;51961;54.960;73.462;2022-08-01T16:02:23;2.33;1.33;0.00
65361;PMS5003;51961;54.960;73.462;2022-08-01T16:05:25;2.00;2.00;0.00
65361;PMS5003;51961;54.960;73.462;2022-08-01T16:08:27;3.67;2.33;0.00
65361;PMS5003;51961;54.960;73.462;2022-08-01T16:11:30;5.75;5.75;1.00
65361;PMS5003;51961;54.960;73.462;2022-08-01T16:14:32;4.00;4.00;1.00
65361;PMS5003;51961;54.960;73.462;2022-08-01T16:17:34;1.00;1.00;0.00
65361;PMS5003;51961;54.960;73.462;2022-08-01T16:20:37;2.25;1.00;0.00
65361;PMS5003;51961;54.960;73.462;2022-08-01T16:23:40;1.33;0.00;0.00
65361;PMS5003;51961;54.960;73.462;2022-08-01T16:26:42;1.75;0.75;0.00
65361;PMS5003;51961;54.960;73.462;2022-08-01T16:29:44;2.00;2.00;0.00
65361;PMS5003;51961;54.960;73.462;2022-08-01T16:32:47;1.00;1.00;0.00
65361;PMS5003;51961;54.960;73.462;2022-08-01T16:35:59;0.00;0.00;0.00
65361;PMS5003;51961;54.960;73.462;2022-08-01T16:39:02;1.00;1.00;0.00
65361;PMS5003;51961;54.960;73.462;2022-08-01T16:42:07;1.00;1.00;0.00
65361;PMS5003;51961;54.960;73.462;2022-08-01T16:45:10;1.00;1.00;0.00
65361;PMS5003;51961;54.960;73.462;2022-08-01T16:48:15;2.00;2.00;0.00
65361;PMS5003;51961;54.960;73.462;2022-08-01T16:51:19;1.00;1.00;0.00
65361;PMS5003;51961;54.960;73.462;2022-08-01T16:54:21;0.00;0.00;0.00
65361;PMS5003;51961;54.960;73.462;2022-08-01T16:57:23;0.00;0.00;0.00
65361;PMS5003;51961;54.960;73.462;2022-08-01T17:00:35;0.00;0.00;0.00
65361;PMS5003;51961;54.960;73.462;2022-08-01T17:03:39;0.00;0.00;0.00
65361;PMS5003;51961;54.960;73.462;2022-08-01T17:06:43;0.00;0.00;0.00
65361;PMS5003;51961;54.960;73.462;2022-08-01T17:09:46;0.00;0.00;0.00
65361;PMS5003;51961;54.960;73.462;2022-08-01T17:12:53;0.00;0.00;0.00
65361;PMS5003;51961;54.960;73.462;2022-08-01T17:16:01;0.00;0.00;0.00
65361;PMS5003;51961;54.960;73.462;2022-08-01T17:19:03;0.00;0.00;0.00
65361;PMS5003;51961;54.960;73.462;2022-08-01T17:22:06;0.00;0.00;0.00
65361;PMS5003;51961;54.960;73.462;2022-08-01T17:25:19;0.00;0.00;0.00
65361;PMS5003;51961;54.960;73.462;2022-08-01T17:28:33;0.00;0.00;0.00
65361;PMS5003;51961;54.960;73.462;2022-08-01T17:31:36;1.00;1.00;0.00
65361;PMS5003;51961;54.960;73.462;2022-08-01T17:34:38;0.00;0.00;0.00
65361;PMS5003;51961;54.960;73.462;2022-08-01T17:37:46;0.00;0.00;0.00
65361;PMS5003;51961;54.960;73.462;2022-08-01T17:40:49;0.00;0.00;0.00
65361;PMS5003;51961;54.960;73.462;2022-08-01T17:43:51;0.00;0.00;0.00
65361;PMS5003;51961;54.960;73.462;2022-08-01T17:47:03;1.00;0.00;0.00
65361;PMS5003;51961;54.960;73.462;2022-08-01T17:50:11;0.00;0.00;0.00
65361;PMS5003;51961;54.960;73.462;2022-08-01T17:53:15;1.00;0.00;0.00
65361;PMS5003;51961;54.960;73.462;2022-08-01T17:56:17;0.33;0.00;0.00